Yuba, Wisconsin
Current Conditions -  °F | °C
As of 6:35 PM on Sunday 21 Dec 2014 (Local Time) from KC35 Reporting Station
Overcast Overcast  
Wind Chill: 30°   Ceiling: 1100
Heat Index: 35°   Visibility: 7mi
Dew Point: 33°   Wind: 6mph
Humidity: 89%   Direction: 160°SSE
Pressure: 29.93"   Gusts: 9mph
Location:  43.6121°N, 90.3998°W
Report Text: KC35 220035Z AUTO 16005G08KT 7SM OVC011 02/00 A2993 RMK AO2 T00190003
Loading
Personal Weather Stations






























Interactive Weather Map New forecast layout! Learn more

10-Day Weather Forecast

Advertisements
Track Severe Weather on mobile